Ana Sayfa
METAR-TAF:

METAR-TAF

Havaalanları :

Franklin Municipal-John Beverly Rose Airport

Franklin, Virginia, Amerika Birleşik Devletleri

Enlem: 36-42N, Boylam: 076-54W, yükseklik: 12 m

Güncel hava durumu gözlemi

Rapor saat 19:55 UTC de 18 dakika önce yapıldı.
Rüzgar güneybatıdan 9 kt ve 19 kt'a kadar ani rüzgarlar
Sıcaklık 36°C
Nem 39%
Basınç 1011 hPa
Görüş mesafesi: 16.1 km
6000 ft yükseklikte parçalı bulutlu

METAR: KFKN 221955Z AUTO 23009G19KT 10SM SCT060 36/20 A2985 RMK AO2 LTG DSNT NW T03580202

Saat: 16:13 (20:13 UTC)


TAF: eksik

4.000'den fazla havaalanı için hava durumu gözlemleri ve tahminleri (METAR ve TAF raporları).

Kullanılabilir istasyonlar harita üzerinde sarı ve kırmızı noktalarla gösterilir.

İstasyonun adını görmek için fareyi noktanın üzerinde gezdirin.

Sonrasında hava gözlem ve tahminlerini görmek için tıklayın.

Haritayı değiştirmek için: yaklaştırmak için siyah artı işaretli yeşil düğmeye ve uzaklaştırmak için de eksi işaretli düğmeye hızla tıklayın; bitişik haritalar için yeşil okları kullanın.


METAR-TAF: